Buoy 53593

sailwx.info

Track history (hours):
 
Tides and Currents Weather Stations Pressure Air Temp Water Temp Dewpoint Dewpoint Depression Visibility Wind Speed Wind Dir Waves Ship Positions

Drifting buoy 53593

Last reported at 2017-Apr-28 18:00 UTC. Time now 2017-Apr-28 20:15 UTC.
Position S 24°02' E 098°30'.

Barometer 1022.5 mb
Water temperature 22.9 ° C

Date/timePositionNaut miles runAvg speedWind from/ knotsBaromVisibWave heightAir tempDewpointWater temp
2017-Apr-28 18:00S 24°02' E 098°30'1 0.4 1022.5 22.9
2017-Apr-28 15:00S 24°01' E 098°31'2 1.1 1022.6 22.9
2017-Apr-28 13:00S 24°01' E 098°34'0 0.0 1022.0 22.9
2017-Apr-28 12:00S 24°01' E 098°34'1 1.1 1021.6 22.9
2017-Apr-28 11:00S 24°01' E 098°35'0 0.0 1021.2 22.9
2017-Apr-28 10:00S 24°01' E 098°35'1 1.2 1020.8 22.9
2017-Apr-28 09:00S 24°01' E 098°36'0 0.0 1020.8 23.0
2017-Apr-28 08:00S 24°01' E 098°36'0 0.0 1021.0 23.0
2017-Apr-28 07:00S 24°01' E 098°36'2 2.3 1021.1 22.9
2017-Apr-28 06:00S 24°01' E 098°38'1 0.2 1021.6 22.9
2017-Apr-28 03:00S 24°00' E 098°38'0 0.0 1022.8 22.9
2017-Apr-28 02:00S 24°00' E 098°38'1 0.3 1023.0 22.8
2017-Apr-28 00:00S 24°00' E 098°39'1 1.1 1022.1 22.9
2017-Apr-27 23:00S 24°00' E 098°40'1 1.1 1022.0 22.9
2017-Apr-27 22:00S 24°00' E 098°41'0 0.0 1021.9 22.9
2017-Apr-27 21:00S 24°00' E 098°41'1 0.3 1022.1 22.9
2017-Apr-27 18:00S 23°59' E 098°42'1 0.2 1022.9 22.9
2017-Apr-27 15:00S 23°59' E 098°43'1 0.5 1023.2 23.0
2017-Apr-27 14:00S 23°59' E 098°43'0 0.0 1022.9 23.0
2017-Apr-27 13:00S 23°59' E 098°43'1 0.6 1022.4 23.0
2017-Apr-27 12:00S 23°59' E 098°43'1 0.8 1021.8 23.0
2017-Apr-27 11:00S 23°59' E 098°44'1 1.2 1021.2 23.0
2017-Apr-27 10:00S 23°59' E 098°45'1 0.5 1020.8 23.0
2017-Apr-27 09:00S 23°59' E 098°46'0 0.0 1020.8 23.0
2017-Apr-27 07:00S 23°59' E 098°46'3 3.3 1020.9 22.9
2017-Apr-27 06:00S 23°58' E 098°49'6 0.9 1021.1 22.9
2017-Apr-27 00:00S 23°57' E 098°55'1 0.4 1021.8 23.0
2017-Apr-26 22:00S 23°58' E 098°56'4 1.2 1021.4 23.1
2017-Apr-26 19:00S 23°55' E 098°59'3 0.9 1022.0 23.2
2017-Apr-26 16:00S 23°55' E 099°02'3 2.8 1022.9 23.3
2017-Apr-26 15:00S 23°53' E 099°04'1 0.3 1022.8 23.3
2017-Apr-26 13:00S 23°53' E 099°04'1 0.3 1021.9 23.3
2017-Apr-26 11:00S 23°53' E 099°04'1 1.3 1021.0 23.3
2017-Apr-26 10:00S 23°52' E 099°05'0 0.0 1020.6 23.4
2017-Apr-26 09:00S 23°52' E 099°05'1 0.6 1020.4 23.4
2017-Apr-26 07:00S 23°51' E 099°06'3 0.7 1020.9 23.4
2017-Apr-26 03:00S 23°49' E 099°08'1 1.3 1022.3 23.4
2017-Apr-26 02:00S 23°47' E 099°08'0 0.0 1022.2 23.3
2017-Apr-26 01:00S 23°47' E 099°08'3 3.3 1021.9 23.3
2017-Apr-26 00:00S 23°45' E 099°11'0 0.0 1021.4 23.3
2017-Apr-25 21:00S 23°45' E 099°11'3 1.6 1021.0 23.4
2017-Apr-25 19:00S 23°43' E 099°14'0 0.0 1021.6 23.4
2017-Apr-25 16:00S 23°43' E 099°14'1 0.7 1022.8 23.4
2017-Apr-25 14:00S 23°42' E 099°14'1 1.3 1022.7 23.4
2017-Apr-25 13:00S 23°41' E 099°16'0 0.0 1022.0 23.4
2017-Apr-25 12:00S 23°41' E 099°16'1 0.5 1021.8 23.4
2017-Apr-25 11:00S 23°41' E 099°16'1 0.8 1021.6 23.4
2017-Apr-25 10:00S 23°41' E 099°17'1 0.3 1021.2 23.4
2017-Apr-25 08:00S 23°41' E 099°16'2 2.1 1021.4 23.4
2017-Apr-25 07:00S 23°39' E 099°17'0 0.0 1021.6 23.4
2017-Apr-25 03:00S 23°39' E 099°17'1 0.4 1023.7 23.4
2017-Apr-25 00:00S 23°38' E 099°18'1 1.3 1022.4 23.3
2017-Apr-24 23:00S 23°37' E 099°19'1 1.3 1021.7 23.4
2017-Apr-24 22:00S 23°36' E 099°20'0 0.0 1021.6 23.3
2017-Apr-24 21:00S 23°36' E 099°20'2 0.7 1021.5 23.4
2017-Apr-24 18:00S 23°34' E 099°21'4 0.5 1022.0 23.4
2017-Apr-24 11:00S 23°32' E 099°24'2 0.8 1020.8 23.6
2017-Apr-24 09:00S 23°31' E 099°25'0 0.0 1020.3 23.6
2017-Apr-24 08:00S 23°31' E 099°25'3 0.7 1020.3 23.6
2017-Apr-24 03:00S 23°28' E 099°28'1 1.1 1022.0 23.7
2017-Apr-24 02:00S 23°28' E 099°29'1 0.6 1021.9 23.6
2017-Apr-24 01:00S 23°28' E 099°29'0 0.0 1021.8 23.7
2017-Apr-24 00:00S 23°28' E 099°29'2 0.8 1021.2 23.6
2017-Apr-23 22:00S 23°28' E 099°31'1 0.4 1020.9 23.6
2017-Apr-23 20:00S 23°28' E 099°31'4 0.6 1021.2 23.5
2017-Apr-23 14:00S 23°26' E 099°34'0 0.0 1022.2 23.6
2017-Apr-23 12:00S 23°26' E 099°34'0 0.0 1021.7 23.6
2017-Apr-23 11:00S 23°26' E 099°34'0 0.0 1021.0 23.6
2017-Apr-23 10:00S 23°26' E 099°34'0 0.0 1020.8 23.6
2017-Apr-23 09:00S 23°26' E 099°34'0 0.0 1020.6 23.7
2017-Apr-23 08:00S 23°26' E 099°34'4 0.6 1020.3 23.7
2017-Apr-23 02:00S 23°24' E 099°37'1 0.6 1022.0 23.5
2017-Apr-23 01:00S 23°23' E 099°37'0 0.0 1021.4 23.5
2017-Apr-23 00:00S 23°23' E 099°37'1 0.8 1020.7 23.5
2017-Apr-22 23:00S 23°24' E 099°38'1 0.3 1020.1 23.5
2017-Apr-22 21:00S 23°23' E 099°38'1 0.2 1019.7 23.5
2017-Apr-22 16:00S 23°23' E 099°39'1 0.8 1021.6 23.5
2017-Apr-22 15:00S 23°23' E 099°40'2 1.8 1021.6 23.5
2017-Apr-22 14:00S 23°22' E 099°41'0 0.0 1021.6 23.5
2017-Apr-22 13:00S 23°22' E 099°41'1 1.3 1020.9 23.5
2017-Apr-22 12:00S 23°22' E 099°43'0 0.0 1020.3 23.5
2017-Apr-22 11:00S 23°22' E 099°43'1 1.3 1020.1 23.5
2017-Apr-22 10:00S 23°22' E 099°44'0 0.0 1019.6 23.5
2017-Apr-22 09:00S 23°22' E 099°44'0 0.0 1019.3 23.6
2017-Apr-22 08:00S 23°22' E 099°44'3 0.5 1019.2 23.6
2017-Apr-22 02:00S 23°23' E 099°47'1 0.6 1021.3 23.5
2017-Apr-22 01:00S 23°23' E 099°47'0 0.0 1020.8 23.5
2017-Apr-22 00:00S 23°23' E 099°47'1 0.6 1020.0 23.5
2017-Apr-21 23:00S 23°23' E 099°47'1 0.6 1019.3 23.5
2017-Apr-21 22:00S 23°23' E 099°48'0 0.0 1019.1 23.5
2017-Apr-21 21:00S 23°23' E 099°48'0 0.0 1019.1 23.5
2017-Apr-21 20:00S 23°23' E 099°48'2 2.5 1019.2 23.5
2017-Apr-21 19:00S 23°26' E 099°47'1 0.4 1019.4 23.5
2017-Apr-21 16:00S 23°25' E 099°48'1 0.8 1019.9 23.6
2017-Apr-21 15:00S 23°25' E 099°47'0 0.0 1020.1 23.6
2017-Apr-21 14:00S 23°25' E 099°47'0 0.0 1020.2 23.6
2017-Apr-21 13:00S 23°25' E 099°47'0 0.0 1019.7 23.6
2017-Apr-21 12:00S 23°25' E 099°47'0 0.0 1019.1 23.6
2017-Apr-21 11:00S 23°25' E 099°47'1 0.6 1018.8 23.6
2017-Apr-21 10:00S 23°25' E 099°48'0 0.0 1018.5 23.6
2017-Apr-21 09:00S 23°25' E 099°48'1 0.3 1018.5 23.7
2017-Apr-21 06:00S 23°25' E 099°47'1 0.4 1019.1 23.6
2017-Apr-21 03:00S 23°25' E 099°49'1 0.6 1020.7 23.5
2017-Apr-21 02:00S 23°25' E 099°49'0 0.0 1020.8 23.5
2017-Apr-21 01:00S 23°25' E 099°49'1 0.8 1020.4 23.5
2017-Apr-21 00:00S 23°24' E 099°49'0 0.0 1019.6 23.5
2017-Apr-20 23:00S 23°24' E 099°49'1 0.6 1019.0 23.5
2017-Apr-20 22:00S 23°24' E 099°50'0 0.0 1018.8 23.5
2017-Apr-20 21:00S 23°24' E 099°50'0 0.0 1018.6 23.5
2017-Apr-20 20:00S 23°24' E 099°50'1 0.6 1018.6 23.6
2017-Apr-20 18:00S 23°25' E 099°49'1 0.6 1019.2 23.6
2017-Apr-20 17:00S 23°24' E 099°49'1 0.4 1019.4 23.6
2017-Apr-20 15:00S 23°23' E 099°48'0 0.0 1019.6 23.6
2017-Apr-20 14:00S 23°23' E 099°48'1 0.6 1019.9 23.6
2017-Apr-20 13:00S 23°23' E 099°48'1 0.6 1019.7 23.6
2017-Apr-20 12:00S 23°22' E 099°48'1 0.4 1019.1 23.6
2017-Apr-20 10:00S 23°22' E 099°49'1 0.6 1018.2 23.7
2017-Apr-20 09:00S 23°22' E 099°49'0 0.0 1018.0 23.8
2017-Apr-20 08:00S 23°22' E 099°49'0 0.0 1018.4 23.8
2017-Apr-20 07:00S 23°22' E 099°49'1 0.6 1018.6 23.7
2017-Apr-20 06:00S 23°22' E 099°50'1 0.1 1018.9 23.7
2017-Apr-20 01:00S 23°22' E 099°49'1 0.6 1019.8 23.4
2017-Apr-20 00:00S 23°21' E 099°49'1 1.1 1019.1 23.4
2017-Apr-19 23:00S 23°21' E 099°50'1 1.1 1018.4 23.4
2017-Apr-19 22:00S 23°21' E 099°49'1 0.8 1018.0 23.4
2017-Apr-19 21:00S 23°20' E 099°50'1 0.1 1018.0 23.4
2017-Apr-19 15:00S 23°20' E 099°50'0 0.0 1019.5 23.5
2017-Apr-19 14:00S 23°20' E 099°50'0 0.0 1019.5 23.5
2017-Apr-19 13:00S 23°20' E 099°50'1 1.3 1019.5 23.5
2017-Apr-19 12:00S 23°19' E 099°50'0 0.0 1018.9 23.5
2017-Apr-19 11:00S 23°19' E 099°50'0 0.0 1018.6 23.6
2017-Apr-19 10:00S 23°19' E 099°50'0 0.0 1018.4 23.6
2017-Apr-19 09:00S 23°19' E 099°50'2 0.3 1018.5 23.7
2017-Apr-19 03:00S 23°17' E 099°52'0 0.0 1020.0 23.4
2017-Apr-19 02:00S 23°17' E 099°52'1 0.6 1019.9 23.4
2017-Apr-19 01:00S 23°17' E 099°52'0 0.0 1019.7 23.4
2017-Apr-19 00:00S 23°17' E 099°52'0 0.0 1018.7 23.4
2017-Apr-18 23:00S 23°17' E 099°52'1 0.6 1018.3 23.4
2017-Apr-18 22:00S 23°17' E 099°51'0 0.0 1017.9 23.4
2017-Apr-18 21:00S 23°17' E 099°51'1 0.8 1017.5 23.4
2017-Apr-18 20:00S 23°16' E 099°52'0 0.0 1017.6 23.4
2017-Apr-18 19:00S 23°16' E 099°52'1 0.8 1017.7 23.4
2017-Apr-18 18:00S 23°17' E 099°51'   1017.9 23.4
Track history (hours):
 
Tides and Currents Weather Stations Pressure Air Temp Water Temp Dewpoint Dewpoint Depression Visibility Wind Speed Wind Dir Waves Ship Positions

Drifting buoy 53593

Last reported at 2017-Apr-28 18:00 UTC. Time now 2017-Apr-28 20:15 UTC.
Position S 24°02' E 098°30'.

Barometer 1022.5 mb
Water temperature 22.9 ° C

Date/timePositionNaut miles runAvg speedWind from/ knotsBaromVisibWave heightAir tempDewpointWater temp
2017-Apr-28 18:00S 24°02' E 098°30'1 0.4 1022.5 22.9
2017-Apr-28 15:00S 24°01' E 098°31'2 1.1 1022.6 22.9
2017-Apr-28 13:00S 24°01' E 098°34'0 0.0 1022.0 22.9
2017-Apr-28 12:00S 24°01' E 098°34'1 1.1 1021.6 22.9
2017-Apr-28 11:00S 24°01' E 098°35'0 0.0 1021.2 22.9
2017-Apr-28 10:00S 24°01' E 098°35'1 1.2 1020.8 22.9
2017-Apr-28 09:00S 24°01' E 098°36'0 0.0 1020.8 23.0
2017-Apr-28 08:00S 24°01' E 098°36'0 0.0 1021.0 23.0
2017-Apr-28 07:00S 24°01' E 098°36'2 2.3 1021.1 22.9
2017-Apr-28 06:00S 24°01' E 098°38'1 0.2 1021.6 22.9
2017-Apr-28 03:00S 24°00' E 098°38'0 0.0 1022.8 22.9
2017-Apr-28 02:00S 24°00' E 098°38'1 0.3 1023.0 22.8
2017-Apr-28 00:00S 24°00' E 098°39'1 1.1 1022.1 22.9
2017-Apr-27 23:00S 24°00' E 098°40'1 1.1 1022.0 22.9
2017-Apr-27 22:00S 24°00' E 098°41'0 0.0 1021.9 22.9
2017-Apr-27 21:00S 24°00' E 098°41'1 0.3 1022.1 22.9
2017-Apr-27 18:00S 23°59' E 098°42'1 0.2 1022.9 22.9
2017-Apr-27 15:00S 23°59' E 098°43'1 0.5 1023.2 23.0
2017-Apr-27 14:00S 23°59' E 098°43'0 0.0 1022.9 23.0
2017-Apr-27 13:00S 23°59' E 098°43'1 0.6 1022.4 23.0
2017-Apr-27 12:00S 23°59' E 098°43'1 0.8 1021.8 23.0
2017-Apr-27 11:00S 23°59' E 098°44'1 1.2 1021.2 23.0
2017-Apr-27 10:00S 23°59' E 098°45'1 0.5 1020.8 23.0
2017-Apr-27 09:00S 23°59' E 098°46'0 0.0 1020.8 23.0
2017-Apr-27 07:00S 23°59' E 098°46'3 3.3 1020.9 22.9
2017-Apr-27 06:00S 23°58' E 098°49'6 0.9 1021.1 22.9
2017-Apr-27 00:00S 23°57' E 098°55'1 0.4 1021.8 23.0
2017-Apr-26 22:00S 23°58' E 098°56'4 1.2 1021.4 23.1
2017-Apr-26 19:00S 23°55' E 098°59'3 0.9 1022.0 23.2
2017-Apr-26 16:00S 23°55' E 099°02'3 2.8 1022.9 23.3
2017-Apr-26 15:00S 23°53' E 099°04'1 0.3 1022.8 23.3
2017-Apr-26 13:00S 23°53' E 099°04'1 0.3 1021.9 23.3
2017-Apr-26 11:00S 23°53' E 099°04'1 1.3 1021.0 23.3
2017-Apr-26 10:00S 23°52' E 099°05'0 0.0 1020.6 23.4
2017-Apr-26 09:00S 23°52' E 099°05'1 0.6 1020.4 23.4
2017-Apr-26 07:00S 23°51' E 099°06'3 0.7 1020.9 23.4
2017-Apr-26 03:00S 23°49' E 099°08'1 1.3 1022.3 23.4
2017-Apr-26 02:00S 23°47' E 099°08'0 0.0 1022.2 23.3
2017-Apr-26 01:00S 23°47' E 099°08'3 3.3 1021.9 23.3
2017-Apr-26 00:00S 23°45' E 099°11'0 0.0 1021.4 23.3
2017-Apr-25 21:00S 23°45' E 099°11'3 1.6 1021.0 23.4
2017-Apr-25 19:00S 23°43' E 099°14'0 0.0 1021.6 23.4
2017-Apr-25 16:00S 23°43' E 099°14'1 0.7 1022.8 23.4
2017-Apr-25 14:00S 23°42' E 099°14'1 1.3 1022.7 23.4
2017-Apr-25 13:00S 23°41' E 099°16'0 0.0 1022.0 23.4
2017-Apr-25 12:00S 23°41' E 099°16'1 0.5 1021.8 23.4
2017-Apr-25 11:00S 23°41' E 099°16'1 0.8 1021.6 23.4
2017-Apr-25 10:00S 23°41' E 099°17'1 0.3 1021.2 23.4
2017-Apr-25 08:00S 23°41' E 099°16'2 2.1 1021.4 23.4
2017-Apr-25 07:00S 23°39' E 099°17'0 0.0 1021.6 23.4
2017-Apr-25 03:00S 23°39' E 099°17'1 0.4 1023.7 23.4
2017-Apr-25 00:00S 23°38' E 099°18'1 1.3 1022.4 23.3
2017-Apr-24 23:00S 23°37' E 099°19'1 1.3 1021.7 23.4
2017-Apr-24 22:00S 23°36' E 099°20'0 0.0 1021.6 23.3
2017-Apr-24 21:00S 23°36' E 099°20'2 0.7 1021.5 23.4
2017-Apr-24 18:00S 23°34' E 099°21'4 0.5 1022.0 23.4
2017-Apr-24 11:00S 23°32' E 099°24'2 0.8 1020.8 23.6
2017-Apr-24 09:00S 23°31' E 099°25'0 0.0 1020.3 23.6
2017-Apr-24 08:00S 23°31' E 099°25'3 0.7 1020.3 23.6
2017-Apr-24 03:00S 23°28' E 099°28'1 1.1 1022.0 23.7
2017-Apr-24 02:00S 23°28' E 099°29'1 0.6 1021.9 23.6
2017-Apr-24 01:00S 23°28' E 099°29'0 0.0 1021.8 23.7
2017-Apr-24 00:00S 23°28' E 099°29'2 0.8 1021.2 23.6
2017-Apr-23 22:00S 23°28' E 099°31'1 0.4 1020.9 23.6
2017-Apr-23 20:00S 23°28' E 099°31'4 0.6 1021.2 23.5
2017-Apr-23 14:00S 23°26' E 099°34'0 0.0 1022.2 23.6
2017-Apr-23 12:00S 23°26' E 099°34'0 0.0 1021.7 23.6
2017-Apr-23 11:00S 23°26' E 099°34'0 0.0 1021.0 23.6
2017-Apr-23 10:00S 23°26' E 099°34'0 0.0 1020.8 23.6
2017-Apr-23 09:00S 23°26' E 099°34'0 0.0 1020.6 23.7
2017-Apr-23 08:00S 23°26' E 099°34'4 0.6 1020.3 23.7
2017-Apr-23 02:00S 23°24' E 099°37'1 0.6 1022.0 23.5
2017-Apr-23 01:00S 23°23' E 099°37'0 0.0 1021.4 23.5
2017-Apr-23 00:00S 23°23' E 099°37'1 0.8 1020.7 23.5
2017-Apr-22 23:00S 23°24' E 099°38'1 0.3 1020.1 23.5
2017-Apr-22 21:00S 23°23' E 099°38'1 0.2 1019.7 23.5
2017-Apr-22 16:00S 23°23' E 099°39'1 0.8 1021.6 23.5
2017-Apr-22 15:00S 23°23' E 099°40'2 1.8 1021.6 23.5
2017-Apr-22 14:00S 23°22' E 099°41'0 0.0 1021.6 23.5
2017-Apr-22 13:00S 23°22' E 099°41'1 1.3 1020.9 23.5
2017-Apr-22 12:00S 23°22' E 099°43'0 0.0 1020.3 23.5
2017-Apr-22 11:00S 23°22' E 099°43'1 1.3 1020.1 23.5
2017-Apr-22 10:00S 23°22' E 099°44'0 0.0 1019.6 23.5
2017-Apr-22 09:00S 23°22' E 099°44'0 0.0 1019.3 23.6
2017-Apr-22 08:00S 23°22' E 099°44'3 0.5 1019.2 23.6
2017-Apr-22 02:00S 23°23' E 099°47'1 0.6 1021.3 23.5
2017-Apr-22 01:00S 23°23' E 099°47'0 0.0 1020.8 23.5
2017-Apr-22 00:00S 23°23' E 099°47'1 0.6 1020.0 23.5
2017-Apr-21 23:00S 23°23' E 099°47'1 0.6 1019.3 23.5
2017-Apr-21 22:00S 23°23' E 099°48'0 0.0 1019.1 23.5
2017-Apr-21 21:00S 23°23' E 099°48'0 0.0 1019.1 23.5
2017-Apr-21 20:00S 23°23' E 099°48'2 2.5 1019.2 23.5
2017-Apr-21 19:00S 23°26' E 099°47'1 0.4 1019.4 23.5
2017-Apr-21 16:00S 23°25' E 099°48'1 0.8 1019.9 23.6
2017-Apr-21 15:00S 23°25' E 099°47'0 0.0 1020.1 23.6
2017-Apr-21 14:00S 23°25' E 099°47'0 0.0 1020.2 23.6
2017-Apr-21 13:00S 23°25' E 099°47'0 0.0 1019.7 23.6
2017-Apr-21 12:00S 23°25' E 099°47'0 0.0 1019.1 23.6
2017-Apr-21 11:00S 23°25' E 099°47'1 0.6 1018.8 23.6
2017-Apr-21 10:00S 23°25' E 099°48'0 0.0 1018.5 23.6
2017-Apr-21 09:00S 23°25' E 099°48'1 0.3 1018.5 23.7
2017-Apr-21 06:00S 23°25' E 099°47'1 0.4 1019.1 23.6
2017-Apr-21 03:00S 23°25' E 099°49'1 0.6 1020.7 23.5
2017-Apr-21 02:00S 23°25' E 099°49'0 0.0 1020.8 23.5
2017-Apr-21 01:00S 23°25' E 099°49'1 0.8 1020.4 23.5
2017-Apr-21 00:00S 23°24' E 099°49'0 0.0 1019.6 23.5
2017-Apr-20 23:00S 23°24' E 099°49'1 0.6 1019.0 23.5
2017-Apr-20 22:00S 23°24' E 099°50'0 0.0 1018.8 23.5
2017-Apr-20 21:00S 23°24' E 099°50'0 0.0 1018.6 23.5
2017-Apr-20 20:00S 23°24' E 099°50'1 0.6 1018.6 23.6
2017-Apr-20 18:00S 23°25' E 099°49'1 0.6 1019.2 23.6
2017-Apr-20 17:00S 23°24' E 099°49'1 0.4 1019.4 23.6
2017-Apr-20 15:00S 23°23' E 099°48'0 0.0 1019.6 23.6
2017-Apr-20 14:00S 23°23' E 099°48'1 0.6 1019.9 23.6
2017-Apr-20 13:00S 23°23' E 099°48'1 0.6 1019.7 23.6
2017-Apr-20 12:00S 23°22' E 099°48'1 0.4 1019.1 23.6
2017-Apr-20 10:00S 23°22' E 099°49'1 0.6 1018.2 23.7
2017-Apr-20 09:00S 23°22' E 099°49'0 0.0 1018.0 23.8
2017-Apr-20 08:00S 23°22' E 099°49'0 0.0 1018.4 23.8
2017-Apr-20 07:00S 23°22' E 099°49'1 0.6 1018.6 23.7
2017-Apr-20 06:00S 23°22' E 099°50'1 0.1 1018.9 23.7
2017-Apr-20 01:00S 23°22' E 099°49'1 0.6 1019.8 23.4
2017-Apr-20 00:00S 23°21' E 099°49'1 1.1 1019.1 23.4
2017-Apr-19 23:00S 23°21' E 099°50'1 1.1 1018.4 23.4
2017-Apr-19 22:00S 23°21' E 099°49'1 0.8 1018.0 23.4
2017-Apr-19 21:00S 23°20' E 099°50'1 0.1 1018.0 23.4
2017-Apr-19 15:00S 23°20' E 099°50'0 0.0 1019.5 23.5
2017-Apr-19 14:00S 23°20' E 099°50'0 0.0 1019.5 23.5
2017-Apr-19 13:00S 23°20' E 099°50'1 1.3 1019.5 23.5
2017-Apr-19 12:00S 23°19' E 099°50'0 0.0 1018.9 23.5
2017-Apr-19 11:00S 23°19' E 099°50'0 0.0 1018.6 23.6
2017-Apr-19 10:00S 23°19' E 099°50'0 0.0 1018.4 23.6
2017-Apr-19 09:00S 23°19' E 099°50'2 0.3 1018.5 23.7
2017-Apr-19 03:00S 23°17' E 099°52'0 0.0 1020.0 23.4
2017-Apr-19 02:00S 23°17' E 099°52'1 0.6 1019.9 23.4
2017-Apr-19 01:00S 23°17' E 099°52'0 0.0 1019.7 23.4
2017-Apr-19 00:00S 23°17' E 099°52'0 0.0 1018.7 23.4
2017-Apr-18 23:00S 23°17' E 099°52'1 0.6 1018.3 23.4
2017-Apr-18 22:00S 23°17' E 099°51'0 0.0 1017.9 23.4
2017-Apr-18 21:00S 23°17' E 099°51'1 0.8 1017.5 23.4
2017-Apr-18 20:00S 23°16' E 099°52'0 0.0 1017.6 23.4
2017-Apr-18 19:00S 23°16' E 099°52'1 0.8 1017.7 23.4
2017-Apr-18 18:00S 23°17' E 099°51'   1017.9 23.4

Dump ship's entire track history